sensor_id;sensor_type;location;lat;lon;timestamp;temperature;humidity
21259;DHT22;10787;53.364;-1.480;2022-12-11T00:01:59;2.80;99.90
21259;DHT22;10787;53.364;-1.480;2022-12-11T00:04:25;2.80;99.90
21259;DHT22;10787;53.364;-1.480;2022-12-11T00:06:51;2.80;99.90
21259;DHT22;10787;53.364;-1.480;2022-12-11T00:09:18;2.80;99.90
21259;DHT22;10787;53.364;-1.480;2022-12-11T00:11:44;2.70;99.90
21259;DHT22;10787;53.364;-1.480;2022-12-11T00:14:10;2.70;99.90
21259;DHT22;10787;53.364;-1.480;2022-12-11T00:16:40;2.70;99.90
21259;DHT22;10787;53.364;-1.480;2022-12-11T00:19:06;2.70;99.90
21259;DHT22;10787;53.364;-1.480;2022-12-11T00:21:32;2.70;99.90
21259;DHT22;10787;53.364;-1.480;2022-12-11T00:23:58;2.80;99.90
21259;DHT22;10787;53.364;-1.480;2022-12-11T00:26:24;2.70;99.90
21259;DHT22;10787;53.364;-1.480;2022-12-11T00:28:54;2.70;99.90
21259;DHT22;10787;53.364;-1.480;2022-12-11T00:31:21;2.70;99.90
21259;DHT22;10787;53.364;-1.480;2022-12-11T00:33:48;2.70;99.90
21259;DHT22;10787;53.364;-1.480;2022-12-11T00:36:20;2.70;99.90
21259;DHT22;10787;53.364;-1.480;2022-12-11T00:38:47;2.70;99.90
21259;DHT22;10787;53.364;-1.480;2022-12-11T00:41:14;2.70;99.90
21259;DHT22;10787;53.364;-1.480;2022-12-11T00:43:40;2.70;99.90
21259;DHT22;10787;53.364;-1.480;2022-12-11T00:46:06;2.70;99.90
21259;DHT22;10787;53.364;-1.480;2022-12-11T00:48:32;2.70;99.90
21259;DHT22;10787;53.364;-1.480;2022-12-11T00:50:58;2.60;99.90
21259;DHT22;10787;53.364;-1.480;2022-12-11T00:53:24;2.60;99.90
21259;DHT22;10787;53.364;-1.480;2022-12-11T00:55:50;2.60;99.90
21259;DHT22;10787;53.364;-1.480;2022-12-11T00:58:16;2.60;99.90
21259;DHT22;10787;53.364;-1.480;2022-12-11T01:00:42;2.50;99.90
21259;DHT22;10787;53.364;-1.480;2022-12-11T01:03:10;2.50;99.90
21259;DHT22;10787;53.364;-1.480;2022-12-11T01:05:37;2.50;99.90
21259;DHT22;10787;53.364;-1.480;2022-12-11T01:08:04;2.40;99.90
21259;DHT22;10787;53.364;-1.480;2022-12-11T01:10:30;2.40;99.90
21259;DHT22;10787;53.364;-1.480;2022-12-11T01:13:04;2.40;99.90
21259;DHT22;10787;53.364;-1.480;2022-12-11T01:15:33;2.40;99.90
21259;DHT22;10787;53.364;-1.480;2022-12-11T01:18:00;2.40;99.90
21259;DHT22;10787;53.364;-1.480;2022-12-11T01:20:27;2.40;99.90
21259;DHT22;10787;53.364;-1.480;2022-12-11T01:22:54;2.40;99.90
21259;DHT22;10787;53.364;-1.480;2022-12-11T01:25:21;2.30;99.90
21259;DHT22;10787;53.364;-1.480;2022-12-11T01:27:53;2.30;99.90
21259;DHT22;10787;53.364;-1.480;2022-12-11T01:30:21;2.20;99.90
21259;DHT22;10787;53.364;-1.480;2022-12-11T01:32:47;2.20;99.90
21259;DHT22;10787;53.364;-1.480;2022-12-11T01:35:13;2.20;99.90
21259;DHT22;10787;53.364;-1.480;2022-12-11T01:37:39;2.20;99.90
21259;DHT22;10787;53.364;-1.480;2022-12-11T01:40:06;2.20;99.90
21259;DHT22;10787;53.364;-1.480;2022-12-11T01:42:33;2.20;99.90
21259;DHT22;10787;53.364;-1.480;2022-12-11T01:47:49;2.10;99.90
21259;DHT22;10787;53.364;-1.480;2022-12-11T01:50:15;2.10;99.90
21259;DHT22;10787;53.364;-1.480;2022-12-11T01:52:43;2.10;99.90
21259;DHT22;10787;53.364;-1.480;2022-12-11T01:55:11;2.00;99.90
21259;DHT22;10787;53.364;-1.480;2022-12-11T01:57:41;2.00;99.90
21259;DHT22;10787;53.364;-1.480;2022-12-11T02:00:08;1.90;99.90
21259;DHT22;10787;53.364;-1.480;2022-12-11T02:02:34;1.90;99.90
21259;DHT22;10787;53.364;-1.480;2022-12-11T02:05:04;1.90;99.90
21259;DHT22;10787;53.364;-1.480;2022-12-11T02:07:45;1.90;99.90
21259;DHT22;10787;53.364;-1.480;2022-12-11T02:10:13;1.90;99.90
21259;DHT22;10787;53.364;-1.480;2022-12-11T02:12:52;1.90;99.90
21259;DHT22;10787;53.364;-1.480;2022-12-11T02:18:43;1.90;99.90
21259;DHT22;10787;53.364;-1.480;2022-12-11T02:21:19;1.80;99.90
21259;DHT22;10787;53.364;-1.480;2022-12-11T02:30:09;1.80;99.90
21259;DHT22;10787;53.364;-1.480;2022-12-11T02:35:18;1.80;99.90
21259;DHT22;10787;53.364;-1.480;2022-12-11T02:37:47;1.90;99.90
21259;DHT22;10787;53.364;-1.480;2022-12-11T02:40:18;1.90;99.90
21259;DHT22;10787;53.364;-1.480;2022-12-11T02:42:47;1.90;99.90
21259;DHT22;10787;53.364;-1.480;2022-12-11T02:45:15;1.90;99.90
21259;DHT22;10787;53.364;-1.480;2022-12-11T02:47:46;1.90;99.90
21259;DHT22;10787;53.364;-1.480;2022-12-11T02:50:16;1.90;99.90
21259;DHT22;10787;53.364;-1.480;2022-12-11T02:52:43;1.90;99.90
21259;DHT22;10787;53.364;-1.480;2022-12-11T02:55:14;1.80;99.90
21259;DHT22;10787;53.364;-1.480;2022-12-11T02:57:44;1.80;99.90
21259;DHT22;10787;53.364;-1.480;2022-12-11T03:00:12;1.80;99.90
21259;DHT22;10787;53.364;-1.480;2022-12-11T03:02:39;1.90;99.90
21259;DHT22;10787;53.364;-1.480;2022-12-11T03:05:06;1.90;99.90
21259;DHT22;10787;53.364;-1.480;2022-12-11T03:07:34;1.90;99.90
21259;DHT22;10787;53.364;-1.480;2022-12-11T03:10:02;1.90;99.90
21259;DHT22;10787;53.364;-1.480;2022-12-11T03:12:30;1.90;99.90
21259;DHT22;10787;53.364;-1.480;2022-12-11T03:14:59;1.90;99.90
21259;DHT22;10787;53.364;-1.480;2022-12-11T03:17:38;1.90;99.90
21259;DHT22;10787;53.364;-1.480;2022-12-11T03:23:17;1.90;99.90
21259;DHT22;10787;53.364;-1.480;2022-12-11T03:25:57;1.90;99.90
21259;DHT22;10787;53.364;-1.480;2022-12-11T03:28:38;1.90;99.90
21259;DHT22;10787;53.364;-1.480;2022-12-11T03:31:13;1.90;99.90
21259;DHT22;10787;53.364;-1.480;2022-12-11T03:33:43;1.90;99.90
21259;DHT22;10787;53.364;-1.480;2022-12-11T03:36:26;1.90;99.90
21259;DHT22;10787;53.364;-1.480;2022-12-11T03:39:10;1.90;99.90
21259;DHT22;10787;53.364;-1.480;2022-12-11T03:41:38;1.90;99.90
21259;DHT22;10787;53.364;-1.480;2022-12-11T03:44:07;1.90;99.90
21259;DHT22;10787;53.364;-1.480;2022-12-11T03:46:36;1.90;99.90
21259;DHT22;10787;53.364;-1.480;2022-12-11T03:49:07;1.90;99.90
21259;DHT22;10787;53.364;-1.480;2022-12-11T03:51:34;1.90;99.90
21259;DHT22;10787;53.364;-1.480;2022-12-11T03:54:01;1.90;99.90
21259;DHT22;10787;53.364;-1.480;2022-12-11T03:56:29;1.90;99.90
21259;DHT22;10787;53.364;-1.480;2022-12-11T03:58:58;1.90;99.90
21259;DHT22;10787;53.364;-1.480;2022-12-11T04:01:23;1.90;99.90
21259;DHT22;10787;53.364;-1.480;2022-12-11T04:03:50;1.90;99.90
21259;DHT22;10787;53.364;-1.480;2022-12-11T04:06:15;1.90;99.90
21259;DHT22;10787;53.364;-1.480;2022-12-11T04:08:41;1.90;99.90
21259;DHT22;10787;53.364;-1.480;2022-12-11T04:11:07;1.90;99.90
21259;DHT22;10787;53.364;-1.480;2022-12-11T04:13:51;1.90;99.90
21259;DHT22;10787;53.364;-1.480;2022-12-11T04:16:37;1.90;99.90
21259;DHT22;10787;53.364;-1.480;2022-12-11T04:19:03;1.80;99.90
21259;DHT22;10787;53.364;-1.480;2022-12-11T04:22:03;1.80;99.90
21259;DHT22;10787;53.364;-1.480;2022-12-11T04:24:48;1.80;99.90
21259;DHT22;10787;53.364;-1.480;2022-12-11T04:27:15;1.80;99.90
21259;DHT22;10787;53.364;-1.480;2022-12-11T04:30:06;1.80;99.90
21259;DHT22;10787;53.364;-1.480;2022-12-11T04:32:32;1.80;99.90
21259;DHT22;10787;53.364;-1.480;2022-12-11T04:34:58;1.80;99.90
21259;DHT22;10787;53.364;-1.480;2022-12-11T04:37:30;1.80;99.90
21259;DHT22;10787;53.364;-1.480;2022-12-11T04:39:56;1.80;99.90
21259;DHT22;10787;53.364;-1.480;2022-12-11T04:42:22;1.80;99.90
21259;DHT22;10787;53.364;-1.480;2022-12-11T04:44:53;1.80;99.90
21259;DHT22;10787;53.364;-1.480;2022-12-11T04:47:24;1.80;99.90
21259;DHT22;10787;53.364;-1.480;2022-12-11T04:49:52;1.80;99.90
21259;DHT22;10787;53.364;-1.480;2022-12-11T04:52:18;1.80;99.90
21259;DHT22;10787;53.364;-1.480;2022-12-11T04:54:45;1.80;99.90
21259;DHT22;10787;53.364;-1.480;2022-12-11T04:57:11;1.80;99.90
21259;DHT22;10787;53.364;-1.480;2022-12-11T04:59:37;1.80;99.90
21259;DHT22;10787;53.364;-1.480;2022-12-11T05:02:05;1.80;99.90
21259;DHT22;10787;53.364;-1.480;2022-12-11T05:04:34;1.80;99.90
21259;DHT22;10787;53.364;-1.480;2022-12-11T05:07:00;1.80;99.90
21259;DHT22;10787;53.364;-1.480;2022-12-11T05:09:26;1.80;99.90
21259;DHT22;10787;53.364;-1.480;2022-12-11T05:11:57;1.70;99.90
21259;DHT22;10787;53.364;-1.480;2022-12-11T05:14:31;1.80;99.90
21259;DHT22;10787;53.364;-1.480;2022-12-11T05:16:58;1.80;99.90
21259;DHT22;10787;53.364;-1.480;2022-12-11T05:19:27;1.80;99.90
21259;DHT22;10787;53.364;-1.480;2022-12-11T05:21:53;1.80;99.90
21259;DHT22;10787;53.364;-1.480;2022-12-11T05:24:29;1.70;99.90
21259;DHT22;10787;53.364;-1.480;2022-12-11T05:26:54;1.80;99.90
21259;DHT22;10787;53.364;-1.480;2022-12-11T05:29:20;1.70;99.90
21259;DHT22;10787;53.364;-1.480;2022-12-11T05:31:46;1.70;99.90
21259;DHT22;10787;53.364;-1.480;2022-12-11T05:34:12;1.70;99.90
21259;DHT22;10787;53.364;-1.480;2022-12-11T05:36:39;1.80;99.90
21259;DHT22;10787;53.364;-1.480;2022-12-11T05:39:05;1.80;99.90
21259;DHT22;10787;53.364;-1.480;2022-12-11T05:41:31;1.80;99.90
21259;DHT22;10787;53.364;-1.480;2022-12-11T05:43:58;1.80;99.90
21259;DHT22;10787;53.364;-1.480;2022-12-11T05:46:25;1.80;99.90
21259;DHT22;10787;53.364;-1.480;2022-12-11T05:48:55;1.80;99.90
21259;DHT22;10787;53.364;-1.480;2022-12-11T05:51:21;1.80;99.90
21259;DHT22;10787;53.364;-1.480;2022-12-11T05:53:49;1.80;99.90
21259;DHT22;10787;53.364;-1.480;2022-12-11T05:56:18;1.80;99.90
21259;DHT22;10787;53.364;-1.480;2022-12-11T05:58:45;1.70;99.90
21259;DHT22;10787;53.364;-1.480;2022-12-11T06:01:24;1.70;99.90
21259;DHT22;10787;53.364;-1.480;2022-12-11T06:03:50;1.70;99.90
21259;DHT22;10787;53.364;-1.480;2022-12-11T06:06:16;1.70;99.90
21259;DHT22;10787;53.364;-1.480;2022-12-11T06:08:42;1.70;99.90
21259;DHT22;10787;53.364;-1.480;2022-12-11T06:11:10;1.70;99.90
21259;DHT22;10787;53.364;-1.480;2022-12-11T06:13:36;1.70;99.90
21259;DHT22;10787;53.364;-1.480;2022-12-11T06:16:04;1.70;99.90
21259;DHT22;10787;53.364;-1.480;2022-12-11T06:18:37;1.70;99.90
21259;DHT22;10787;53.364;-1.480;2022-12-11T06:23:37;1.80;99.90
21259;DHT22;10787;53.364;-1.480;2022-12-11T06:26:03;1.70;99.90
21259;DHT22;10787;53.364;-1.480;2022-12-11T06:28:29;1.70;99.90
21259;DHT22;10787;53.364;-1.480;2022-12-11T06:30:59;1.70;99.90
21259;DHT22;10787;53.364;-1.480;2022-12-11T06:33:25;1.70;99.90
21259;DHT22;10787;53.364;-1.480;2022-12-11T06:35:51;1.70;99.90
21259;DHT22;10787;53.364;-1.480;2022-12-11T06:38:20;1.70;99.90
21259;DHT22;10787;53.364;-1.480;2022-12-11T06:40:53;1.70;99.90
21259;DHT22;10787;53.364;-1.480;2022-12-11T06:43:19;1.80;99.90
21259;DHT22;10787;53.364;-1.480;2022-12-11T06:45:45;1.70;99.90
21259;DHT22;10787;53.364;-1.480;2022-12-11T06:48:11;1.70;99.90
21259;DHT22;10787;53.364;-1.480;2022-12-11T06:50:38;1.70;99.90
21259;DHT22;10787;53.364;-1.480;2022-12-11T06:53:04;1.70;99.90
21259;DHT22;10787;53.364;-1.480;2022-12-11T06:55:30;1.70;99.90
21259;DHT22;10787;53.364;-1.480;2022-12-11T06:57:55;1.80;99.90
21259;DHT22;10787;53.364;-1.480;2022-12-11T07:00:21;1.70;99.90
21259;DHT22;10787;53.364;-1.480;2022-12-11T07:02:49;1.70;99.90
21259;DHT22;10787;53.364;-1.480;2022-12-11T07:05:15;1.70;99.90
21259;DHT22;10787;53.364;-1.480;2022-12-11T07:07:41;1.70;99.90
21259;DHT22;10787;53.364;-1.480;2022-12-11T07:10:07;1.70;99.90
21259;DHT22;10787;53.364;-1.480;2022-12-11T07:12:33;1.80;99.90
21259;DHT22;10787;53.364;-1.480;2022-12-11T07:15:00;1.80;99.90
21259;DHT22;10787;53.364;-1.480;2022-12-11T07:17:26;1.80;99.90
21259;DHT22;10787;53.364;-1.480;2022-12-11T07:19:52;1.80;99.90
21259;DHT22;10787;53.364;-1.480;2022-12-11T07:22:18;1.80;99.90
21259;DHT22;10787;53.364;-1.480;2022-12-11T07:24:45;1.80;99.90
21259;DHT22;10787;53.364;-1.480;2022-12-11T07:27:10;1.70;99.90
21259;DHT22;10787;53.364;-1.480;2022-12-11T07:29:38;1.70;99.90
21259;DHT22;10787;53.364;-1.480;2022-12-11T07:32:04;1.70;99.90
21259;DHT22;10787;53.364;-1.480;2022-12-11T07:34:30;1.70;99.90
21259;DHT22;10787;53.364;-1.480;2022-12-11T07:36:56;1.70;99.90
21259;DHT22;10787;53.364;-1.480;2022-12-11T07:39:22;1.60;99.90
21259;DHT22;10787;53.364;-1.480;2022-12-11T07:41:50;1.60;99.90
21259;DHT22;10787;53.364;-1.480;2022-12-11T07:44:17;1.60;99.90
21259;DHT22;10787;53.364;-1.480;2022-12-11T07:46:43;1.60;99.90
21259;DHT22;10787;53.364;-1.480;2022-12-11T07:49:09;1.50;99.90
21259;DHT22;10787;53.364;-1.480;2022-12-11T07:51:36;1.50;99.90
21259;DHT22;10787;53.364;-1.480;2022-12-11T07:54:09;1.50;99.90
21259;DHT22;10787;53.364;-1.480;2022-12-11T07:56:36;1.50;99.90
21259;DHT22;10787;53.364;-1.480;2022-12-11T07:59:04;1.50;99.90
21259;DHT22;10787;53.364;-1.480;2022-12-11T08:01:32;1.40;99.90
21259;DHT22;10787;53.364;-1.480;2022-12-11T08:04:00;1.40;99.90
21259;DHT22;10787;53.364;-1.480;2022-12-11T08:06:29;1.40;99.90
21259;DHT22;10787;53.364;-1.480;2022-12-11T08:08:57;1.40;99.90
21259;DHT22;10787;53.364;-1.480;2022-12-11T08:11:24;1.40;99.90
21259;DHT22;10787;53.364;-1.480;2022-12-11T08:13:49;1.40;99.90
21259;DHT22;10787;53.364;-1.480;2022-12-11T08:16:16;1.40;99.90
21259;DHT22;10787;53.364;-1.480;2022-12-11T08:18:43;1.40;99.90
21259;DHT22;10787;53.364;-1.480;2022-12-11T08:21:15;1.40;99.90
21259;DHT22;10787;53.364;-1.480;2022-12-11T08:23:42;1.40;99.90
21259;DHT22;10787;53.364;-1.480;2022-12-11T08:26:13;1.40;99.90
21259;DHT22;10787;53.364;-1.480;2022-12-11T08:28:39;1.40;99.90
21259;DHT22;10787;53.364;-1.480;2022-12-11T08:31:07;1.40;99.90
21259;DHT22;10787;53.364;-1.480;2022-12-11T08:33:35;1.50;99.90
21259;DHT22;10787;53.364;-1.480;2022-12-11T08:36:03;1.50;99.90
21259;DHT22;10787;53.364;-1.480;2022-12-11T08:38:29;1.50;99.90
21259;DHT22;10787;53.364;-1.480;2022-12-11T08:40:54;1.50;99.90
21259;DHT22;10787;53.364;-1.480;2022-12-11T08:43:20;1.60;99.90
21259;DHT22;10787;53.364;-1.480;2022-12-11T08:45:46;1.60;99.90
21259;DHT22;10787;53.364;-1.480;2022-12-11T08:48:12;1.60;99.90
21259;DHT22;10787;53.364;-1.480;2022-12-11T08:50:38;1.60;99.90
21259;DHT22;10787;53.364;-1.480;2022-12-11T08:53:04;1.60;99.90
21259;DHT22;10787;53.364;-1.480;2022-12-11T08:55:31;1.60;99.90
21259;DHT22;10787;53.364;-1.480;2022-12-11T08:57:58;1.60;99.90
21259;DHT22;10787;53.364;-1.480;2022-12-11T09:00:25;1.60;99.90
21259;DHT22;10787;53.364;-1.480;2022-12-11T09:02:50;1.60;99.90
21259;DHT22;10787;53.364;-1.480;2022-12-11T09:05:16;1.60;99.90
21259;DHT22;10787;53.364;-1.480;2022-12-11T09:07:42;1.60;99.90
21259;DHT22;10787;53.364;-1.480;2022-12-11T09:10:09;1.60;99.90
21259;DHT22;10787;53.364;-1.480;2022-12-11T09:12:35;1.50;99.90
21259;DHT22;10787;53.364;-1.480;2022-12-11T09:15:01;1.50;99.90
21259;DHT22;10787;53.364;-1.480;2022-12-11T09:17:27;1.60;99.90
21259;DHT22;10787;53.364;-1.480;2022-12-11T09:19:53;1.50;99.90
21259;DHT22;10787;53.364;-1.480;2022-12-11T09:22:21;1.50;99.90
21259;DHT22;10787;53.364;-1.480;2022-12-11T09:24:47;1.50;99.90
21259;DHT22;10787;53.364;-1.480;2022-12-11T09:27:13;1.50;99.90
21259;DHT22;10787;53.364;-1.480;2022-12-11T09:29:39;1.50;99.90
21259;DHT22;10787;53.364;-1.480;2022-12-11T09:32:05;1.50;99.90
21259;DHT22;10787;53.364;-1.480;2022-12-11T09:34:31;1.50;99.90
21259;DHT22;10787;53.364;-1.480;2022-12-11T09:36:57;1.50;99.90
21259;DHT22;10787;53.364;-1.480;2022-12-11T09:39:22;1.60;99.90
21259;DHT22;10787;53.364;-1.480;2022-12-11T09:46:58;1.50;99.90
21259;DHT22;10787;53.364;-1.480;2022-12-11T09:54:38;1.60;99.90
21259;DHT22;10787;53.364;-1.480;2022-12-11T10:17:19;1.70;99.90
21259;DHT22;10787;53.364;-1.480;2022-12-11T10:19:46;1.70;99.90
21259;DHT22;10787;53.364;-1.480;2022-12-11T10:22:33;1.70;99.90
21259;DHT22;10787;53.364;-1.480;2022-12-11T10:27:39;1.80;99.90
21259;DHT22;10787;53.364;-1.480;2022-12-11T10:30:15;1.80;99.90
21259;DHT22;10787;53.364;-1.480;2022-12-11T10:37:57;2.00;99.90
21259;DHT22;10787;53.364;-1.480;2022-12-11T10:40:28;2.10;99.90
21259;DHT22;10787;53.364;-1.480;2022-12-11T10:42:55;2.10;99.90
21259;DHT22;10787;53.364;-1.480;2022-12-11T10:45:21;2.20;99.90
21259;DHT22;10787;53.364;-1.480;2022-12-11T10:47:47;2.20;99.90
21259;DHT22;10787;53.364;-1.480;2022-12-11T10:50:24;2.20;99.90
21259;DHT22;10787;53.364;-1.480;2022-12-11T10:52:50;2.30;99.90
21259;DHT22;10787;53.364;-1.480;2022-12-11T10:55:24;2.30;99.90
21259;DHT22;10787;53.364;-1.480;2022-12-11T10:57:58;2.30;99.90
21259;DHT22;10787;53.364;-1.480;2022-12-11T11:02:59;2.40;99.90
21259;DHT22;10787;53.364;-1.480;2022-12-11T11:05:34;2.50;99.90
21259;DHT22;10787;53.364;-1.480;2022-12-11T11:08:09;2.50;99.90
21259;DHT22;10787;53.364;-1.480;2022-12-11T11:10:36;2.50;99.90
21259;DHT22;10787;53.364;-1.480;2022-12-11T11:13:02;2.60;99.90
21259;DHT22;10787;53.364;-1.480;2022-12-11T11:15:29;2.60;99.90
21259;DHT22;10787;53.364;-1.480;2022-12-11T11:18:02;2.70;99.90
21259;DHT22;10787;53.364;-1.480;2022-12-11T11:20:34;2.70;99.90
21259;DHT22;10787;53.364;-1.480;2022-12-11T11:23:03;2.80;99.90
21259;DHT22;10787;53.364;-1.480;2022-12-11T11:25:31;2.90;99.90
21259;DHT22;10787;53.364;-1.480;2022-12-11T11:27:59;2.90;99.90
21259;DHT22;10787;53.364;-1.480;2022-12-11T11:30:53;2.90;99.90
21259;DHT22;10787;53.364;-1.480;2022-12-11T11:33:21;3.00;99.90
21259;DHT22;10787;53.364;-1.480;2022-12-11T11:35:57;3.00;99.90
21259;DHT22;10787;53.364;-1.480;2022-12-11T11:41:20;3.00;99.90
21259;DHT22;10787;53.364;-1.480;2022-12-11T11:43:54;3.00;99.90
21259;DHT22;10787;53.364;-1.480;2022-12-11T11:46:29;3.00;99.90
21259;DHT22;10787;53.364;-1.480;2022-12-11T11:52:03;3.20;99.90
21259;DHT22;10787;53.364;-1.480;2022-12-11T11:54:36;3.20;99.90
21259;DHT22;10787;53.364;-1.480;2022-12-11T11:57:16;3.20;99.90
21259;DHT22;10787;53.364;-1.480;2022-12-11T11:59:53;3.20;99.90
21259;DHT22;10787;53.364;-1.480;2022-12-11T12:02:20;3.30;99.90
21259;DHT22;10787;53.364;-1.480;2022-12-11T12:04:47;3.30;99.90
21259;DHT22;10787;53.364;-1.480;2022-12-11T12:07:45;3.20;99.90
21259;DHT22;10787;53.364;-1.480;2022-12-11T12:10:25;3.30;99.90
21259;DHT22;10787;53.364;-1.480;2022-12-11T12:16:21;3.30;99.90
21259;DHT22;10787;53.364;-1.480;2022-12-11T12:21:34;3.40;99.90
21259;DHT22;10787;53.364;-1.480;2022-12-11T12:26:53;3.40;99.90
21259;DHT22;10787;53.364;-1.480;2022-12-11T12:32:27;3.30;99.90
21259;DHT22;10787;53.364;-1.480;2022-12-11T12:38:01;3.30;99.90
21259;DHT22;10787;53.364;-1.480;2022-12-11T12:48:33;3.20;99.90
21259;DHT22;10787;53.364;-1.480;2022-12-11T12:51:08;3.20;99.90
21259;DHT22;10787;53.364;-1.480;2022-12-11T12:53:38;3.20;99.90
21259;DHT22;10787;53.364;-1.480;2022-12-11T12:56:13;3.20;99.90
21259;DHT22;10787;53.364;-1.480;2022-12-11T12:58:44;3.20;99.90
21259;DHT22;10787;53.364;-1.480;2022-12-11T13:01:39;3.30;99.90
21259;DHT22;10787;53.364;-1.480;2022-12-11T13:04:56;3.30;99.90
21259;DHT22;10787;53.364;-1.480;2022-12-11T13:07:33;3.30;99.90
21259;DHT22;10787;53.364;-1.480;2022-12-11T13:10:07;3.20;99.90
21259;DHT22;10787;53.364;-1.480;2022-12-11T13:12:48;3.30;99.90
21259;DHT22;10787;53.364;-1.480;2022-12-11T13:18:28;3.20;99.90
21259;DHT22;10787;53.364;-1.480;2022-12-11T13:20:52;3.20;99.90
21259;DHT22;10787;53.364;-1.480;2022-12-11T13:23:27;3.20;99.90
21259;DHT22;10787;53.364;-1.480;2022-12-11T13:25:59;3.20;99.90
21259;DHT22;10787;53.364;-1.480;2022-12-11T13:28:52;3.20;99.90
21259;DHT22;10787;53.364;-1.480;2022-12-11T13:33:50;3.20;99.90
21259;DHT22;10787;53.364;-1.480;2022-12-11T13:39:07;3.20;99.90
21259;DHT22;10787;53.364;-1.480;2022-12-11T13:41:35;3.20;99.90
21259;DHT22;10787;53.364;-1.480;2022-12-11T13:44:04;3.20;99.90
21259;DHT22;10787;53.364;-1.480;2022-12-11T13:46:34;3.30;99.90
21259;DHT22;10787;53.364;-1.480;2022-12-11T13:49:04;3.30;99.90
21259;DHT22;10787;53.364;-1.480;2022-12-11T13:51:33;3.30;99.90
21259;DHT22;10787;53.364;-1.480;2022-12-11T13:54:15;3.30;99.90
21259;DHT22;10787;53.364;-1.480;2022-12-11T13:59:33;3.20;99.90
21259;DHT22;10787;53.364;-1.480;2022-12-11T14:02:12;3.20;99.90
21259;DHT22;10787;53.364;-1.480;2022-12-11T14:04:40;3.20;99.90
21259;DHT22;10787;53.364;-1.480;2022-12-11T14:07:07;3.20;99.90
21259;DHT22;10787;53.364;-1.480;2022-12-11T14:09:43;3.10;99.90
21259;DHT22;10787;53.364;-1.480;2022-12-11T14:12:18;3.10;99.90
21259;DHT22;10787;53.364;-1.480;2022-12-11T14:14:49;3.10;99.90
21259;DHT22;10787;53.364;-1.480;2022-12-11T14:17:24;3.10;99.90
21259;DHT22;10787;53.364;-1.480;2022-12-11T14:19:52;3.10;99.90
21259;DHT22;10787;53.364;-1.480;2022-12-11T14:22:20;3.10;99.90
21259;DHT22;10787;53.364;-1.480;2022-12-11T14:24:58;3.10;99.90
21259;DHT22;10787;53.364;-1.480;2022-12-11T14:27:26;3.00;99.90
21259;DHT22;10787;53.364;-1.480;2022-12-11T14:29:52;2.90;99.90
21259;DHT22;10787;53.364;-1.480;2022-12-11T14:34:54;2.80;99.90
21259;DHT22;10787;53.364;-1.480;2022-12-11T14:37:22;2.80;99.90
21259;DHT22;10787;53.364;-1.480;2022-12-11T14:40:12;2.70;99.90
21259;DHT22;10787;53.364;-1.480;2022-12-11T14:42:44;2.70;99.90
21259;DHT22;10787;53.364;-1.480;2022-12-11T14:45:19;2.70;99.90
21259;DHT22;10787;53.364;-1.480;2022-12-11T14:47:49;2.60;99.90
21259;DHT22;10787;53.364;-1.480;2022-12-11T14:50:22;2.60;99.90
21259;DHT22;10787;53.364;-1.480;2022-12-11T14:52:57;2.50;99.90
21259;DHT22;10787;53.364;-1.480;2022-12-11T14:55:33;2.50;99.90
21259;DHT22;10787;53.364;-1.480;2022-12-11T14:58:05;2.50;99.90
21259;DHT22;10787;53.364;-1.480;2022-12-11T15:00:37;2.50;99.90
21259;DHT22;10787;53.364;-1.480;2022-12-11T15:05:53;2.50;99.90
21259;DHT22;10787;53.364;-1.480;2022-12-11T15:08:39;2.50;99.90
21259;DHT22;10787;53.364;-1.480;2022-12-11T15:11:16;2.40;99.90
21259;DHT22;10787;53.364;-1.480;2022-12-11T15:13:59;2.40;99.90
21259;DHT22;10787;53.364;-1.480;2022-12-11T15:16:31;2.40;99.90
21259;DHT22;10787;53.364;-1.480;2022-12-11T15:18:57;2.40;99.90
21259;DHT22;10787;53.364;-1.480;2022-12-11T15:21:28;2.30;99.90
21259;DHT22;10787;53.364;-1.480;2022-12-11T15:23:58;2.30;99.90
21259;DHT22;10787;53.364;-1.480;2022-12-11T15:26:45;2.30;99.90
21259;DHT22;10787;53.364;-1.480;2022-12-11T15:29:37;2.40;99.90
21259;DHT22;10787;53.364;-1.480;2022-12-11T15:37:31;2.50;99.90
21259;DHT22;10787;53.364;-1.480;2022-12-11T15:39:59;2.50;99.90
21259;DHT22;10787;53.364;-1.480;2022-12-11T15:42:31;2.50;99.90
21259;DHT22;10787;53.364;-1.480;2022-12-11T15:44:59;2.50;99.90
21259;DHT22;10787;53.364;-1.480;2022-12-11T15:52:42;2.30;99.90
21259;DHT22;10787;53.364;-1.480;2022-12-11T15:55:09;2.30;99.90
21259;DHT22;10787;53.364;-1.480;2022-12-11T15:57:36;2.20;99.90
21259;DHT22;10787;53.364;-1.480;2022-12-11T16:00:03;2.20;99.90
21259;DHT22;10787;53.364;-1.480;2022-12-11T16:02:31;2.10;99.90
21259;DHT22;10787;53.364;-1.480;2022-12-11T16:04:58;2.10;99.90
21259;DHT22;10787;53.364;-1.480;2022-12-11T16:07:25;2.00;99.90
21259;DHT22;10787;53.364;-1.480;2022-12-11T16:09:51;1.90;99.90
21259;DHT22;10787;53.364;-1.480;2022-12-11T16:12:17;1.90;99.90
21259;DHT22;10787;53.364;-1.480;2022-12-11T16:14:44;1.80;99.90
21259;DHT22;10787;53.364;-1.480;2022-12-11T16:17:12;1.80;99.90
21259;DHT22;10787;53.364;-1.480;2022-12-11T16:19:39;1.70;99.90
21259;DHT22;10787;53.364;-1.480;2022-12-11T16:22:06;1.70;99.90
21259;DHT22;10787;53.364;-1.480;2022-12-11T16:24:33;1.60;99.90
21259;DHT22;10787;53.364;-1.480;2022-12-11T16:27:00;1.60;99.90
21259;DHT22;10787;53.364;-1.480;2022-12-11T16:29:27;1.60;99.90
21259;DHT22;10787;53.364;-1.480;2022-12-11T16:31:53;1.50;99.90
21259;DHT22;10787;53.364;-1.480;2022-12-11T16:34:26;1.40;99.90
21259;DHT22;10787;53.364;-1.480;2022-12-11T16:36:55;1.40;99.90
21259;DHT22;10787;53.364;-1.480;2022-12-11T16:39:21;1.20;99.90
21259;DHT22;10787;53.364;-1.480;2022-12-11T16:41:48;1.10;99.90
21259;DHT22;10787;53.364;-1.480;2022-12-11T16:44:19;1.20;99.90
21259;DHT22;10787;53.364;-1.480;2022-12-11T16:46:45;1.40;99.90
21259;DHT22;10787;53.364;-1.480;2022-12-11T16:49:11;1.90;99.90
21259;DHT22;10787;53.364;-1.480;2022-12-11T16:51:37;2.20;99.90
21259;DHT22;10787;53.364;-1.480;2022-12-11T16:54:03;2.40;99.90
21259;DHT22;10787;53.364;-1.480;2022-12-11T16:56:29;2.30;99.90
21259;DHT22;10787;53.364;-1.480;2022-12-11T16:58:55;2.20;99.90
21259;DHT22;10787;53.364;-1.480;2022-12-11T17:01:22;2.10;99.90
21259;DHT22;10787;53.364;-1.480;2022-12-11T17:03:47;1.90;99.90
21259;DHT22;10787;53.364;-1.480;2022-12-11T17:06:16;1.70;99.90
21259;DHT22;10787;53.364;-1.480;2022-12-11T17:08:43;1.60;99.90
21259;DHT22;10787;53.364;-1.480;2022-12-11T17:11:12;1.50;99.90
21259;DHT22;10787;53.364;-1.480;2022-12-11T17:13:39;1.40;99.90
21259;DHT22;10787;53.364;-1.480;2022-12-11T17:16:10;1.30;99.90
21259;DHT22;10787;53.364;-1.480;2022-12-11T17:18:36;1.20;99.90
21259;DHT22;10787;53.364;-1.480;2022-12-11T17:21:11;1.10;99.90
21259;DHT22;10787;53.364;-1.480;2022-12-11T17:23:38;1.00;99.90
21259;DHT22;10787;53.364;-1.480;2022-12-11T17:26:04;0.90;99.90
21259;DHT22;10787;53.364;-1.480;2022-12-11T17:28:30;0.80;99.90
21259;DHT22;10787;53.364;-1.480;2022-12-11T17:30:57;0.70;99.90
21259;DHT22;10787;53.364;-1.480;2022-12-11T17:33:23;0.60;99.90
21259;DHT22;10787;53.364;-1.480;2022-12-11T17:35:49;0.60;99.90
21259;DHT22;10787;53.364;-1.480;2022-12-11T17:38:15;0.60;99.90
21259;DHT22;10787;53.364;-1.480;2022-12-11T17:40:42;0.60;99.90
21259;DHT22;10787;53.364;-1.480;2022-12-11T17:43:11;0.70;99.90